Hlavní strana
METAR-TAF:

METAR-TAF

Letiště :

Illizi, Alžírsko

zeměpisná šířka: 26-30N, zeměpisná délka: 008-25E, výška: 558 m

Aktuální stav počasí

Zpráva byla vytvořena před 39 minutami, v 18:00 UTC
Jihozápadní vítr 14 kt
Teplota 33°C
Tlak 1008 hPa
Viditelnost: 6000 m

METAR: DAAP 071800Z 23014KT 6000 NSC 33/// Q1008

Čas: 19:39 (18:39 UTC)

Předpověď počasí

Zpráva byla vytvořena před 1 hodinou a 39 minutami, v 17:00 UTC
Předpověď platná od 07 v 18 UTC do 08 v 03 UTC
Západojihozápadní vítr 14 kt
Viditelnost: 6000 m
Pravděpodobnost 30% :
Dočasný
od 07 v 18 UTC do 07 v 21 UTC
Viditelnost: 4000 m
písek

TAF: DAAP 071700Z 0718/0803 24014KT 6000 NSC PROB30 TEMPO 0718/0721 4000 SA

Stav a předpovědi počasí z více než 4 000 letišť (zprávy METAR a TAF).

Červené a žluté tečky na mapě představují dostupné meteorologické stanice.

Když kurzor umístíte na tečku, zobrazí se název stanice.

Pak kliknutím zobrazíte stav a předpověď počasí.

Chcete-li změnit mapu, kliknutím na zelené tlačítko se znaménkem +mapu přiblížíte, kliknutím na zelené tlačítko se znaménkem – mapu oddálíte a kliknutím na zelené šipky přejdete na sousední mapy.


METAR-TAF: